PROFILE

 METAR AND TAF INFORMATION
ADDS - METARS form results

(0029 UTC 27 May 2019)
http://aviationweather.gov/metar/data/
 
CYWL 270000Z 29008KT 190V310 15SM FU FEW070 22/02 A2996 RMK CU1 SLP154 DENSITY ALT 4600FT
TAF CYWL 261838Z 2619/2707 VRB03KT P6SM SKC BECMG 2619/2621 30008KT RMK NXT FCST BY 270100Z 

 AIRPORT MAP

 RUNWAY INFORMATION
Runway 11 Runway length 7000 ft Runway width 150 ft
Runway elevation 3082 ft Runway displaced threshold 0 ft Runway heading 135
Runway 29 Runway length 7000 ft Runway width 150 ft
Runway elevation 3074 ft Runway displaced threshold 0 ft Runway heading 315

 AIRPORT FREQUENCIES
Type MF Name Williams L Frequency 122.3 MHZ
Type PAL Name Vancouver Frequency 134 MHZ
Type PAL Name Vancouver Frequency 381.4 MHZ
Type RADIO Name Williams L Frequency 122.3 MHZ
Type RCO Name Pacific Ra Frequency 123.275 MHZ
Type VDF Name VHF Direct Frequency 122.3 MHZ

 AIRPORT NEAR NAVIGATION AIDS
Type NDB Name Williams Lake Frequency 385 KHZ
Type VORTAC Name Williams Lake Frequency 113600 KHZ